Time;durP1;ratioP1;P1;durP2;ratioP2;P2;SDS_P1;SDS_P2;PMS_P1;PMS_P2;Temp;Humidity;BMP_temperature;BMP_pressure;BME280_temperature;BME280_humidity;BME280_pressure;Samples;Min_cycle;Max_cycle;Signal;HPM_P1;HPM_P2
2024/01/16 00:01:47;;;;;;;13.65;2.25;;;;;;;;;;5030106;28;20122;-58
2024/01/16 00:04:13;;;;;;;13.45;3.22;;;;;;;;;;5023459;28;20040;-58
2024/01/16 00:06:40;;;;;;;8.02;1.98;;;;;;;;;;5025822;28;20033;-57
2024/01/16 00:09:06;;;;;;;10.38;2.42;;;;;;;;;;5020576;28;20478;-55
2024/01/16 00:11:32;;;;;;;9.45;2.00;;;;;;;;;;5026475;28;20052;-57
2024/01/16 00:13:58;;;;;;;11.88;2.60;;;1.20;99.90;;;;;;5030182;28;20036;-58
2024/01/16 00:16:24;;;;;;;7.75;2.55;;;;;;;;;;5024036;28;20543;-57
2024/01/16 00:18:50;;;;;;;9.35;2.45;;;;;;;;;;5022589;28;20110;-56
2024/01/16 00:21:16;;;;;;;12.48;2.83;;;;;;;;;;5024487;28;20033;-57
2024/01/16 00:23:42;;;;;;;11.95;2.08;;;;;;;;;;5012207;28;20033;-57
2024/01/16 00:26:08;;;;;;;9.57;2.33;;;;;;;;;;5021971;28;20060;-54
2024/01/16 00:28:33;;;;;;;7.80;1.80;;;1.30;99.90;;;;;;5024479;28;20045;-56
2024/01/16 00:30:59;;;;;;;9.18;2.40;;;;;;;;;;5026541;28;20057;-59
2024/01/16 00:33:27;;;;;;;7.75;1.83;;;;;;;;;;5024064;28;20420;-57
2024/01/16 00:35:53;;;;;;;7.65;1.35;;;;;;;;;;5025710;28;20041;-58
2024/01/16 00:38:19;;;;;;;6.40;1.42;;;;;;;;;;5024584;28;20052;-57
2024/01/16 00:40:46;;;;;;;7.70;1.58;;;;;;;;;;5028297;28;20045;-56
2024/01/16 00:43:12;;;;;;;4.97;1.20;;;;;;;;;;5022078;28;20041;-55
2024/01/16 00:45:40;;;;;;;6.80;1.35;;;;;;;;;;5013762;28;20069;-57
2024/01/16 00:48:06;;;;;;;4.63;1.38;;;;;;;;;;5028015;28;20412;-54
2024/01/16 00:50:32;;;;;;;8.75;1.60;;;1.20;99.90;;;;;;5027397;28;20120;-55
2024/01/16 00:52:57;;;;;;;4.93;1.17;;;1.10;99.90;;;;;;5028605;28;20121;-55
2024/01/16 00:55:23;;;;;;;14.07;3.03;;;;;;;;;;5027351;28;20485;-56
2024/01/16 00:57:49;;;;;;;6.25;1.20;;;;;;;;;;5009023;28;20042;-54
2024/01/16 01:00:15;;;;;;;8.30;2.08;;;;;;;;;;5028911;28;20095;-55
2024/01/16 01:02:42;;;;;;;8.98;1.67;;;;;;;;;;5024082;28;20448;-56
2024/01/16 01:05:08;;;;;;;8.95;2.38;;;;;;;;;;5026069;28;20036;-57
2024/01/16 01:07:34;;;;;;;12.95;1.90;;;;;;;;;;5030072;28;20464;-54
2024/01/16 01:10:00;;;;;;;6.28;1.48;;;;;;;;;;5026701;28;20096;-57
2024/01/16 01:12:26;;;;;;;9.65;1.65;;;;;;;;;;5033150;28;20044;-56
2024/01/16 01:14:52;;;;;;;5.90;1.50;;;;;;;;;;5027288;28;20081;-56
2024/01/16 01:17:18;;;;;;;6.18;1.33;;;1.10;99.90;;;;;;5029336;28;20120;-57
2024/01/16 01:19:46;;;;;;;5.55;1.38;;;1.30;99.90;;;;;;5030455;28;20572;-55
2024/01/16 01:22:12;;;;;;;8.57;2.20;;;1.20;99.90;;;;;;5024205;28;20037;-57
2024/01/16 01:24:37;;;;;;;9.38;1.88;;;1.40;99.90;;;;;;5029675;28;20042;-56
2024/01/16 01:27:04;;;;;;;6.82;1.63;;;;;;;;;;5027459;28;20048;-57
2024/01/16 01:29:30;;;;;;;12.60;2.15;;;;;;;;;;5027755;28;20137;-57
2024/01/16 01:31:56;;;;;;;11.20;2.28;;;;;;;;;;5027494;28;20065;-54
2024/01/16 01:34:22;;;;;;;6.88;2.15;;;;;;;;;;5031908;28;20091;-56
2024/01/16 01:36:48;;;;;;;10.10;1.95;;;;;;;;;;5005284;28;20497;-58
2024/01/16 01:39:14;;;;;;;8.50;2.08;;;;;;;;;;5028368;28;20102;-58
2024/01/16 01:41:40;;;;;;;7.95;1.88;;;;;;;;;;5030192;28;20123;-57
2024/01/16 01:44:06;;;;;;;11.07;2.00;;;;;;;;;;5025411;28;20136;-56
2024/01/16 01:46:34;;;;;;;8.65;1.70;;;;;;;;;;5028750;28;20041;-55
2024/01/16 01:49:00;;;;;;;8.55;2.20;;;;;;;;;;5024310;28;20506;-54
2024/01/16 01:51:26;;;;;;;10.27;2.30;;;;;;;;;;5031548;28;20131;-58
2024/01/16 01:53:52;;;;;;;7.60;1.30;;;1.30;99.90;;;;;;5029940;28;20085;-56
2024/01/16 01:56:19;;;;;;;6.93;1.33;;;;;;;;;;5029146;28;20116;-57
2024/01/16 01:58:46;;;;;;;8.00;1.88;;;;;;;;;;5029394;28;20126;-57
2024/01/16 02:01:13;;;;;;;6.40;1.42;;;;;;;;;;5028318;28;20041;-57
2024/01/16 02:03:46;;;;;;;6.85;2.13;;;;;;;;;;5034945;28;20033;-56
2024/01/16 02:06:12;;;;;;;4.70;2.03;;;;;;;;;;5035173;28;20041;-57
2024/01/16 02:08:39;;;;;;;5.75;1.30;;;;;;;;;;5031751;28;20056;-57
2024/01/16 02:11:05;;;;;;;7.72;2.00;;;;;;;;;;5029559;28;20049;-58
2024/01/16 02:13:32;;;;;;;8.10;1.80;;;;;;;;;;5026543;28;20044;-55
2024/01/16 02:15:57;;;;;;;8.45;1.83;;;1.20;99.90;;;;;;5027781;28;20412;-59
2024/01/16 02:18:23;;;;;;;6.05;1.20;;;;;;;;;;5024345;28;20041;-59
2024/01/16 02:20:49;;;;;;;9.02;1.55;;;;;;;;;;5030940;28;20121;-57
2024/01/16 02:23:16;;;;;;;10.60;1.95;;;;;;;;;;5033358;28;20117;-57
2024/01/16 02:25:42;;;;;;;7.25;1.30;;;;;;;;;;5030418;28;20041;-58
2024/01/16 02:28:08;;;;;;;12.50;2.83;;;;;;;;;;5026554;28;20154;-58
2024/01/16 02:30:34;;;;;;;11.82;1.90;;;;;;;;;;5025865;28;20133;-58
2024/01/16 02:33:00;;;;;;;7.72;1.85;;;;;;;;;;5029286;28;20042;-58
2024/01/16 02:35:26;;;;;;;9.02;1.95;;;;;;;;;;5032530;28;20107;-58
2024/01/16 02:37:52;;;;;;;8.52;1.60;;;;;;;;;;5029634;28;20037;-58
2024/01/16 02:40:18;;;;;;;6.25;1.77;;;;;;;;;;5027149;28;20033;-57
2024/01/16 02:42:44;;;;;;;12.05;2.35;;;1.30;99.90;;;;;;5026170;28;20041;-57
2024/01/16 02:45:10;;;;;;;6.18;1.50;;;;;;;;;;5029666;28;20109;-58
2024/01/16 02:47:36;;;;;;;7.88;1.88;;;;;;;;;;5026278;28;20064;-58
2024/01/16 02:50:02;;;;;;;7.00;1.50;;;;;;;;;;5026365;28;20076;-57
2024/01/16 02:52:28;;;;;;;6.28;1.90;;;;;;;;;;5025278;28;20052;-58
2024/01/16 02:54:54;;;;;;;10.35;2.03;;;;;;;;;;5024485;28;20041;-57
2024/01/16 02:57:20;;;;;;;5.85;1.40;;;;;;;;;;5029343;28;20041;-57
2024/01/16 02:59:50;;;;;;;10.43;1.80;;;;;;;;;;5027885;28;20529;-58
2024/01/16 03:02:16;;;;;;;7.35;1.60;;;;;;;;;;5031458;28;20040;-55
2024/01/16 03:04:42;;;;;;;10.15;1.98;;;;;;;;;;5026164;28;20411;-58
2024/01/16 03:07:08;;;;;;;7.78;1.60;;;;;;;;;;5028116;28;20067;-54
2024/01/16 03:09:34;;;;;;;10.20;1.60;;;;;;;;;;5027084;28;20502;-55
2024/01/16 03:12:00;;;;;;;9.50;2.08;;;;;;;;;;5028034;28;20539;-56
2024/01/16 03:14:26;;;;;;;7.13;1.50;;;;;;;;;;5029451;28;20062;-56
2024/01/16 03:16:52;;;;;;;10.32;2.10;;;;;;;;;;5027669;28;21622;-55
2024/01/16 03:19:18;;;;;;;11.60;1.58;;;;;;;;;;5028015;28;20034;-57
2024/01/16 03:21:44;;;;;;;8.80;2.10;;;;;;;;;;5026988;28;20857;-56
2024/01/16 03:24:10;;;;;;;8.30;1.85;;;;;;;;;;5011455;28;20034;-55
2024/01/16 03:26:38;;;;;;;7.55;1.90;;;;;;;;;;5024712;28;20712;-53
2024/01/16 03:29:04;;;;;;;8.75;2.67;;;;;;;;;;5028508;28;20041;-54
2024/01/16 03:31:30;;;;;;;9.90;1.60;;;;;;;;;;5027173;28;20088;-56
2024/01/16 03:33:56;;;;;;;7.88;1.95;;;1.30;99.90;;;;;;5029056;28;20468;-56
2024/01/16 03:36:22;;;;;;;8.25;1.55;;;;;;;;;;5028577;28;20037;-54
2024/01/16 03:38:48;;;;;;;8.13;1.50;;;;;;;;;;5026411;28;20037;-55
2024/01/16 03:41:14;;;;;;;12.55;2.88;;;;;;;;;;5027465;28;20405;-56
2024/01/16 03:43:40;;;;;;;7.30;1.35;;;;;;;;;;5025873;28;20132;-55
2024/01/16 03:46:07;;;;;;;9.45;3.47;;;;;;;;;;5025892;28;20075;-56
2024/01/16 03:48:33;;;;;;;7.32;2.10;;;;;;;;;;5024103;28;20586;-53
2024/01/16 03:50:59;;;;;;;11.52;2.40;;;;;;;;;;5027114;28;20034;-53
2024/01/16 03:53:25;;;;;;;6.10;1.88;;;;;;;;;;5030648;28;20069;-55
2024/01/16 03:55:51;;;;;;;11.27;2.35;;;1.30;99.90;;;;;;5011146;28;20052;-56
2024/01/16 03:58:17;;;;;;;13.65;1.70;;;;;;;;;;5028127;28;20033;-56
2024/01/16 04:00:45;;;;;;;10.15;2.75;;;;;;;;;;5026347;28;20068;-54
2024/01/16 04:03:11;;;;;;;8.48;1.50;;;;;;;;;;5028294;28;20040;-56
2024/01/16 04:05:37;;;;;;;8.18;2.10;;;;;;;;;;5022814;28;20113;-58
2024/01/16 04:08:03;;;;;;;10.45;1.88;;;;;;;;;;5026337;28;20048;-56
2024/01/16 04:10:29;;;;;;;9.68;2.25;;;1.20;99.90;;;;;;5022570;28;20037;-55
2024/01/16 04:12:55;;;;;;;5.32;1.52;;;;;;;;;;5022504;28;20507;-53
2024/01/16 04:15:21;;;;;;;6.65;1.70;;;;;;;;;;5027155;28;20037;-54
2024/01/16 04:17:48;;;;;;;8.40;1.95;;;;;;;;;;5027192;28;20045;-55
2024/01/16 04:20:14;;;;;;;7.65;1.90;;;;;;;;;;5029260;28;20385;-55
2024/01/16 04:22:40;;;;;;;9.35;2.17;;;;;;;;;;5029323;28;20037;-55
2024/01/16 04:25:06;;;;;;;9.55;2.38;;;;;;;;;;5024740;28;20116;-55
2024/01/16 04:27:32;;;;;;;11.90;2.97;;;;;;;;;;5027428;28;20103;-53
2024/01/16 04:29:58;;;;;;;9.65;1.73;;;;;;;;;;5026318;28;20056;-54
2024/01/16 04:32:24;;;;;;;11.93;3.33;;;;;;;;;;5032671;28;20056;-54
2024/01/16 04:34:50;;;;;;;7.88;2.85;;;1.60;99.90;;;;;;5029180;28;20040;-55
2024/01/16 04:37:16;;;;;;;10.23;2.38;;;1.50;99.90;;;;;;5033443;28;20087;-56
2024/01/16 04:39:42;;;;;;;6.10;1.92;;;;;;;;;;5033912;28;20121;-54
2024/01/16 04:42:07;;;;;;;6.25;1.58;;;1.50;99.90;;;;;;5033879;28;20037;-56
2024/01/16 04:44:33;;;;;;;6.97;1.48;;;;;;;;;;5034285;28;20563;-55
2024/01/16 04:47:31;;;;;;;7.53;1.42;;;;;;;;;;5029691;28;20416;-57
2024/01/16 04:49:57;;;;;;;12.55;2.05;;;;;;;;;;5025878;28;20420;-57
2024/01/16 04:52:23;;;;;;;8.32;1.75;;;;;;;;;;5031830;28;20124;-57
2024/01/16 04:54:49;;;;;;;10.40;1.65;;;;;;;;;;5023691;28;20148;-56
2024/01/16 04:57:15;;;;;;;7.25;1.35;;;;;;;;;;5028749;28;20033;-57
2024/01/16 04:59:41;;;;;;;6.00;1.55;;;1.60;99.90;;;;;;5024078;28;20044;-56
2024/01/16 05:02:07;;;;;;;7.55;1.50;;;1.50;99.90;;;;;;5024759;28;20037;-56
2024/01/16 05:04:33;;;;;;;7.07;2.42;;;;;;;;;;5027900;28;20044;-57
2024/01/16 05:06:59;;;;;;;6.15;1.55;;;;;;;;;;5031584;28;20072;-57
2024/01/16 05:09:25;;;;;;;6.35;1.65;;;;;;;;;;5029562;28;20037;-55
2024/01/16 05:11:51;;;;;;;6.30;1.83;;;;;;;;;;5032484;28;20103;-55
2024/01/16 05:14:17;;;;;;;8.02;2.08;;;;;;;;;;5033624;28;20037;-56
2024/01/16 05:16:43;;;;;;;7.35;1.80;;;;;;;;;;5030498;28;20098;-56
2024/01/16 05:19:09;;;;;;;9.57;1.70;;;;;;;;;;5030034;28;20033;-53
2024/01/16 05:21:35;;;;;;;5.78;1.55;;;;;;;;;;5030659;28;20034;-57
2024/01/16 05:24:01;;;;;;;11.32;2.03;;;;;;;;;;5030287;28;20041;-55
2024/01/16 05:26:27;;;;;;;12.23;2.25;;;;;;;;;;5020300;28;20045;-56
2024/01/16 05:28:52;;;;;;;8.23;1.95;;;;;;;;;;5017286;28;20085;-55
2024/01/16 05:31:19;;;;;;;7.97;1.52;;;1.50;99.90;;;;;;5027963;28;20091;-57
2024/01/16 05:33:45;;;;;;;7.47;1.80;;;;;;;;;;5031763;28;20049;-56
2024/01/16 05:36:11;;;;;;;12.10;1.60;;;1.60;99.90;;;;;;5030569;28;20033;-53
2024/01/16 05:38:37;;;;;;;10.73;2.35;;;;;;;;;;5030011;28;20041;-56
2024/01/16 05:41:03;;;;;;;7.57;1.75;;;;;;;;;;5031260;28;20107;-55
2024/01/16 05:43:29;;;;;;;5.65;2.38;;;;;;;;;;5032735;28;20037;-54
2024/01/16 05:45:55;;;;;;;8.00;2.25;;;;;;;;;;5017393;28;20045;-57
2024/01/16 05:48:21;;;;;;;7.90;1.73;;;;;;;;;;5022252;28;20038;-55
2024/01/16 05:50:47;;;;;;;10.15;1.73;;;;;;;;;;5028844;28;20048;-57
2024/01/16 05:53:14;;;;;;;7.55;1.48;;;;;;;;;;5019791;28;20033;-57
2024/01/16 05:55:40;;;;;;;15.07;2.28;;;;;;;;;;5019562;28;20046;-57
2024/01/16 05:58:05;;;;;;;8.27;2.05;;;;;;;;;;5023364;28;20042;-57
2024/01/16 06:00:33;;;;;;;7.05;2.00;;;;;;;;;;5018866;28;20042;-56
2024/01/16 06:02:59;;;;;;;9.23;1.80;;;;;;;;;;5024915;28;20045;-57
2024/01/16 06:05:25;;;;;;;8.40;1.48;;;;;;;;;;5016922;28;20042;-56
2024/01/16 06:07:51;;;;;;;11.70;2.50;;;1.20;99.90;;;;;;5027317;28;20095;-57
2024/01/16 06:10:17;;;;;;;8.80;2.00;;;1.40;99.90;;;;;;5021427;28;20038;-54
2024/01/16 06:12:43;;;;;;;13.38;2.45;;;;;;;;;;5026523;28;20045;-56
2024/01/16 06:15:11;;;;;;;7.68;1.80;;;;;;;;;;5029234;28;20440;-56
2024/01/16 06:17:37;;;;;;;8.15;2.28;;;1.50;99.90;;;;;;5029735;28;20042;-56
2024/01/16 06:20:02;;;;;;;8.27;1.77;;;1.60;99.90;;;;;;5027540;28;20111;-55
2024/01/16 06:22:28;;;;;;;6.95;1.42;;;;;;;;;;5021170;28;20670;-55
2024/01/16 06:24:54;;;;;;;7.72;1.45;;;;;;;;;;5025890;28;20110;-53
2024/01/16 06:27:20;;;;;;;7.15;1.92;;;;;;;;;;5035148;28;20496;-56
2024/01/16 06:29:46;;;;;;;8.05;1.92;;;;;;;;;;5031655;28;20041;-56
2024/01/16 06:32:13;;;;;;;9.25;2.25;;;;;;;;;;5021943;28;20046;-56
2024/01/16 06:34:41;;;;;;;13.10;2.72;;;;;;;;;;5030837;28;20447;-53
2024/01/16 06:37:08;;;;;;;8.95;2.13;;;;;;;;;;5028224;28;20049;-56
2024/01/16 06:39:34;;;;;;;11.70;2.20;;;1.70;99.90;;;;;;5028951;28;20135;-55
2024/01/16 06:42:00;;;;;;;9.88;2.78;;;;;;;;;;5028743;28;20046;-53
2024/01/16 06:44:26;;;;;;;5.88;2.00;;;1.70;99.90;;;;;;5029097;28;20259;-54
2024/01/16 06:46:52;;;;;;;9.40;2.40;;;;;;;;;;5028612;28;20143;-56
2024/01/16 06:49:18;;;;;;;10.23;2.38;;;;;;;;;;5002145;28;20052;-56
2024/01/16 06:51:44;;;;;;;7.85;2.38;;;;;;;;;;5004824;28;20037;-54
2024/01/16 06:54:10;;;;;;;12.85;2.65;;;;;;;;;;5018158;28;20123;-56
2024/01/16 06:56:36;;;;;;;9.45;2.50;;;;;;;;;;5017712;28;20046;-55
2024/01/16 06:59:02;;;;;;;9.15;2.65;;;;;;;;;;4971241;28;20052;-57
2024/01/16 07:01:28;;;;;;;9.95;2.35;;;;;;;;;;5016704;28;20041;-56
2024/01/16 07:03:54;;;;;;;10.10;2.00;;;;;;;;;;5008800;28;20744;-56
2024/01/16 07:06:20;;;;;;;9.10;2.33;;;;;;;;;;4999881;28;20041;-55
2024/01/16 07:08:46;;;;;;;9.30;3.17;;;;;;;;;;5018909;28;20041;-53
2024/01/16 07:11:13;;;;;;;7.82;1.83;;;;;;;;;;5022105;28;20048;-56
2024/01/16 07:13:40;;;;;;;15.48;2.78;;;;;;;;;;5020124;28;20111;-54
2024/01/16 07:16:06;;;;;;;6.68;1.92;;;;;;;;;;5020604;28;20034;-55
2024/01/16 07:18:33;;;;;;;8.43;1.75;;;;;;;;;;5022440;28;20065;-57
2024/01/16 07:20:59;;;;;;;8.43;1.63;;;;;;;;;;5003302;28;20045;-57
2024/01/16 07:23:25;;;;;;;7.43;2.08;;;1.50;99.90;;;;;;5019063;28;20049;-57
2024/01/16 07:25:51;;;;;;;8.93;1.90;;;;;;;;;;5022993;28;20540;-57
2024/01/16 07:28:17;;;;;;;9.27;2.13;;;;;;;;;;5015171;28;20048;-56
2024/01/16 07:30:43;;;;;;;11.52;2.90;;;;;;;;;;5018640;28;20067;-57
2024/01/16 07:33:09;;;;;;;12.05;2.63;;;;;;;;;;5015976;28;20136;-57
2024/01/16 07:35:35;;;;;;;8.88;2.45;;;;;;;;;;5021501;28;20029;-57
2024/01/16 07:38:01;;;;;;;9.38;2.13;;;;;;;;;;5019943;28;20056;-56
2024/01/16 07:40:26;;;;;;;7.97;2.72;;;1.30;99.90;;;;;;5018309;28;20119;-56
2024/01/16 07:42:52;;;;;;;9.13;2.13;;;1.30;99.90;;;;;;5022792;28;20056;-57
2024/01/16 07:45:19;;;;;;;9.27;1.95;;;;;;;;;;5021887;28;20080;-56
2024/01/16 07:47:45;;;;;;;9.77;2.20;;;;;;;;;;5003649;28;20054;-56
2024/01/16 07:50:11;;;;;;;7.00;1.73;;;;;;;;;;5015427;28;20037;-56
2024/01/16 07:52:37;;;;;;;7.38;1.90;;;;;;;;;;5015986;28;20029;-55
2024/01/16 07:55:03;;;;;;;10.88;1.90;;;;;;;;;;5020675;28;20523;-57
2024/01/16 07:57:29;;;;;;;10.52;2.95;;;;;;;;;;5019815;28;20501;-55
2024/01/16 07:59:55;;;;;;;11.10;2.42;;;;;;;;;;5014738;28;20745;-55
2024/01/16 08:02:21;;;;;;;7.85;2.67;;;;;;;;;;5013112;28;20128;-53
2024/01/16 08:04:47;;;;;;;7.95;1.70;;;;;;;;;;5017083;28;20037;-56
2024/01/16 08:07:13;;;;;;;8.57;1.90;;;;;;;;;;5023452;28;20042;-57
2024/01/16 08:09:39;;;;;;;6.97;2.13;;;;;;;;;;5022382;28;20044;-56
2024/01/16 08:12:05;;;;;;;8.57;1.65;;;;;;;;;;5021578;28;20382;-56
2024/01/16 08:14:31;;;;;;;10.23;2.17;;;;;;;;;;5017831;28;20521;-56
2024/01/16 08:16:57;;;;;;;6.70;1.70;;;1.50;99.90;;;;;;5023701;28;20504;-55
2024/01/16 08:19:23;;;;;;;5.75;1.80;;;1.20;99.90;;;;;;5015370;28;20049;-55
2024/01/16 08:21:49;;;;;;;7.68;1.65;;;;;;;;;;5020739;28;20117;-57
2024/01/16 08:24:15;;;;;;;4.68;1.17;;;;;;;;;;5017325;28;20056;-55
2024/01/16 08:26:41;;;;;;;7.45;2.00;;;;;;;;;;5025652;28;20916;-55
2024/01/16 08:29:07;;;;;;;7.38;1.30;;;;;;;;;;5019911;28;20057;-56
2024/01/16 08:31:32;;;;;;;6.75;2.17;;;;;;;;;;5021451;28;20454;-57
2024/01/16 08:33:59;;;;;;;8.85;1.50;;;;;;;;;;5023472;28;20037;-56
2024/01/16 08:36:24;;;;;;;6.78;1.48;;;;;;;;;;5017526;28;20141;-56
2024/01/16 08:38:50;;;;;;;10.27;1.77;;;;;;;;;;5019291;28;20594;-56
2024/01/16 08:41:16;;;;;;;5.95;1.73;;;;;;;;;;5019374;28;20044;-55
2024/01/16 08:43:43;;;;;;;7.65;1.45;;;;;;;;;;5022486;28;20033;-56
2024/01/16 08:46:09;;;;;;;6.78;1.60;;;;;;;;;;5024139;28;20096;-55
2024/01/16 08:48:35;;;;;;;7.10;1.60;;;;;;;;;;5026411;28;20025;-54
2024/01/16 08:51:01;;;;;;;7.93;1.33;;;;;;;;;;5027113;28;20516;-55
2024/01/16 08:53:27;;;;;;;5.95;1.35;;;;;;;;;;5027760;28;20091;-53
2024/01/16 08:55:54;;;;;;;6.28;1.30;;;;;;;;;;5024837;28;20049;-56
2024/01/16 08:58:20;;;;;;;8.30;1.27;;;0.90;99.90;;;;;;5022923;28;20460;-54
2024/01/16 09:00:46;;;;;;;6.15;1.50;;;;;;;;;;5028748;28;20041;-56
2024/01/16 09:03:13;;;;;;;4.35;1.35;;;;;;;;;;5027027;28;20038;-56
2024/01/16 09:05:39;;;;;;;6.00;1.55;;;;;;;;;;5029585;28;20357;-54
2024/01/16 09:08:05;;;;;;;4.93;1.45;;;;;;;;;;5029526;28;20091;-55
2024/01/16 09:10:31;;;;;;;6.78;1.30;;;;;;;;;;5029838;28;20044;-55
2024/01/16 09:12:57;;;;;;;7.10;1.40;;;;;;;;;;5030820;28;20037;-55
2024/01/16 09:15:23;;;;;;;4.95;1.40;;;;;;;;;;5031261;28;20041;-56
2024/01/16 09:17:49;;;;;;;6.00;1.70;;;1.70;99.90;;;;;;5030085;28;20045;-55
2024/01/16 09:20:15;;;;;;;7.32;1.52;;;;;;;;;;5013013;28;20056;-54
2024/01/16 09:22:41;;;;;;;6.63;1.45;;;;;;;;;;5030857;28;20110;-53
2024/01/16 09:25:07;;;;;;;4.32;1.23;;;;;;;;;;5034356;28;20042;-56
2024/01/16 09:27:33;;;;;;;6.88;1.40;;;;;;;;;;5031966;28;20041;-53
2024/01/16 09:30:00;;;;;;;5.68;1.35;;;;;;;;;;5013626;28;20068;-53
2024/01/16 09:32:26;;;;;;;5.53;1.40;;;;;;;;;;5033458;28;20045;-54
2024/01/16 09:34:52;;;;;;;3.67;1.10;;;;;;;;;;5032174;28;20065;-54
2024/01/16 09:37:18;;;;;;;5.47;1.20;;;1.50;99.90;;;;;;5026542;28;20091;-54
2024/01/16 09:39:44;;;;;;;6.60;1.88;;;;;;;;;;5032365;28;20037;-57
2024/01/16 09:42:10;;;;;;;5.72;1.30;;;;;;;;;;5031634;28;20527;-57
2024/01/16 09:44:36;;;;;;;6.03;1.65;;;;;;;;;;5032808;28;20083;-57
2024/01/16 09:47:03;;;;;;;7.30;1.90;;;;;;;;;;5030785;28;20056;-55
2024/01/16 09:49:30;;;;;;;8.43;1.77;;;;;;;;;;5033683;28;20615;-56
2024/01/16 09:51:59;;;;;;;4.43;1.70;;;;;;;;;;5031390;28;20492;-56
2024/01/16 09:54:26;;;;;;;7.22;1.52;;;;;;;;;;5030782;28;20045;-57
2024/01/16 09:56:54;;;;;;;5.75;1.40;;;;;;;;;;5033381;28;20088;-56
2024/01/16 09:59:20;;;;;;;7.10;1.70;;;1.90;99.90;;;;;;5029922;28;20029;-55
2024/01/16 10:01:47;;;;;;;7.05;1.60;;;;;;;;;;5032792;28;20092;-57
2024/01/16 10:04:13;;;;;;;5.90;1.63;;;;;;;;;;5023773;28;20030;-57
2024/01/16 10:06:39;;;;;;;8.18;1.80;;;;;;;;;;5012083;28;20096;-57
2024/01/16 10:09:06;;;;;;;4.47;1.70;;;1.80;99.90;;;;;;5030225;28;20412;-56
2024/01/16 10:11:34;;;;;;;5.40;1.52;;;;;;;;;;5026817;28;20045;-57
2024/01/16 10:14:01;;;;;;;5.93;2.50;;;;;;;;;;5029713;28;20106;-57
2024/01/16 10:16:45;;;;;;;5.85;1.65;;;;;;;;;;5028605;28;20099;-57
2024/01/16 10:19:11;;;;;;;9.07;2.05;;;;;;;;;;5029846;28;20049;-57
2024/01/16 10:21:38;;;;;;;5.47;1.60;;;;;;;;;;5028095;28;20048;-56
2024/01/16 10:24:13;;;;;;;6.07;1.77;;;;;;;;;;5030151;28;20053;-56
2024/01/16 10:26:39;;;;;;;5.57;1.33;;;;;;;;;;5031336;28;20044;-57
2024/01/16 10:29:05;;;;;;;5.82;1.60;;;;;;;;;;5032699;28;20037;-57
2024/01/16 10:31:31;;;;;;;13.07;3.70;;;;;;;;;;5030862;28;20040;-57
2024/01/16 10:33:57;;;;;;;5.85;1.83;;;;;;;;;;5035593;28;20049;-56
2024/01/16 10:36:25;;;;;;;4.57;1.38;;;2.00;99.90;;;;;;5030987;28;20117;-57
2024/01/16 10:38:57;;;;;;;5.72;1.65;;;;;;;;;;5030963;28;20065;-54
2024/01/16 10:41:27;;;;;;;7.00;1.42;;;;;;;;;;5031624;28;20096;-57
2024/01/16 10:44:07;;;;;;;8.25;1.70;;;;;;;;;;5028913;28;20120;-54
2024/01/16 10:46:33;;;;;;;10.70;1.85;;;;;;;;;;5029451;28;20056;-56
2024/01/16 10:49:00;;;;;;;7.95;1.80;;;;;;;;;;5028792;28;20103;-57
2024/01/16 10:51:27;;;;;;;5.25;1.88;;;;;;;;;;5032534;28;20042;-53
2024/01/16 10:53:56;;;;;;;7.10;1.60;;;;;;;;;;5031362;28;20046;-57
2024/01/16 10:56:23;;;;;;;8.52;1.70;;;;;;;;;;5030252;28;20410;-56
2024/01/16 10:58:52;;;;;;;6.30;1.52;;;;;;;;;;5028047;28;20037;-55
2024/01/16 11:01:19;;;;;;;7.35;1.65;;;;;;;;;;5028530;28;20457;-58
2024/01/16 11:03:49;;;;;;;5.75;1.70;;;;;;;;;;5029531;28;20038;-60
2024/01/16 11:06:16;;;;;;;8.60;2.10;;;;;;;;;;5026806;28;20030;-59
2024/01/16 11:08:42;;;;;;;7.20;1.90;;;1.30;99.90;;;;;;5028683;28;20051;-57
2024/01/16 11:11:08;;;;;;;8.98;1.70;;;;;;;;;;5029779;28;20045;-57
2024/01/16 11:13:35;;;;;;;10.30;2.30;;;;;;;;;;5028753;28;20117;-57
2024/01/16 11:16:04;;;;;;;8.60;2.00;;;;;;;;;;5029124;28;20052;-59
2024/01/16 11:18:31;;;;;;;8.13;2.35;;;;;;;;;;5026528;28;20175;-57
2024/01/16 11:20:59;;;;;;;12.40;2.50;;;;;;;;;;5029590;28;20063;-58
2024/01/16 11:23:25;;;;;;;9.98;2.30;;;;;;;;;;5028299;28;20037;-58
2024/01/16 11:25:51;;;;;;;11.05;1.90;;;;;;;;;;5027828;28;20524;-58
2024/01/16 11:28:19;;;;;;;10.32;2.03;;;;;;;;;;5029411;28;20060;-58
2024/01/16 11:30:44;;;;;;;7.43;2.15;;;1.60;99.90;;;;;;5027876;28;20069;-57
2024/01/16 11:33:29;;;;;;;10.90;2.83;;;;;;;;;;5027363;28;20070;-58
2024/01/16 11:35:55;;;;;;;9.77;2.30;;;1.80;99.90;;;;;;5027702;28;20038;-59
2024/01/16 11:38:21;;;;;;;8.70;2.22;;;;;;;;;;5028342;28;20087;-59
2024/01/16 11:40:48;;;;;;;10.00;2.40;;;;;;;;;;5027087;28;20048;-59
2024/01/16 11:43:32;;;;;;;9.30;2.22;;;;;;;;;;5028463;28;20091;-58
2024/01/16 11:46:07;;;;;;;7.85;1.73;;;;;;;;;;5029832;28;20033;-57
2024/01/16 11:48:33;;;;;;;5.50;1.92;;;;;;;;;;5024787;28;20443;-58
2024/01/16 11:50:59;;;;;;;8.13;2.03;;;;;;;;;;5029684;28;20115;-60
2024/01/16 11:53:36;;;;;;;9.77;3.67;;;;;;;;;;5027626;28;20173;-58
2024/01/16 11:56:19;;;;;;;5.75;1.77;;;2.50;99.90;;;;;;5028393;28;20100;-59
2024/01/16 11:58:49;;;;;;;9.80;2.25;;;;;;;;;;5010908;28;20049;-58
2024/01/16 12:01:19;;;;;;;6.38;1.70;;;2.60;99.90;;;;;;5028412;28;20041;-56
2024/01/16 12:03:45;;;;;;;9.93;2.22;;;;;;;;;;5028200;28;20033;-58
2024/01/16 12:06:11;;;;;;;6.00;2.53;;;;;;;;;;5031502;28;20041;-59
2024/01/16 12:08:37;;;;;;;8.93;2.80;;;;;;;;;;5029458;28;20029;-58
2024/01/16 12:11:04;;;;;;;9.05;1.80;;;;;;;;;;5028137;28;20386;-59
2024/01/16 12:13:30;;;;;;;9.77;2.30;;;;;;;;;;5027693;28;20067;-60
2024/01/16 12:16:00;;;;;;;5.65;1.92;;;;;;;;;;5027434;28;20029;-59
2024/01/16 12:18:26;;;;;;;8.00;1.90;;;;;;;;;;5027961;28;20048;-59
2024/01/16 12:20:52;;;;;;;8.05;2.33;;;;;;;;;;5028219;28;20044;-60
2024/01/16 12:23:20;;;;;;;5.85;2.08;;;7.50;99.90;;;;;;5027321;28;20523;-60
2024/01/16 12:25:54;;;;;;;6.68;2.10;;;;;;;;;;5024519;28;20042;-60
2024/01/16 12:28:21;;;;;;;5.10;1.80;;;;;;;;;;5028650;28;20060;-59
2024/01/16 12:30:51;;;;;;;9.55;2.72;;;;;;;;;;5026555;28;20528;-60
2024/01/16 12:33:21;;;;;;;6.78;2.13;;;8.80;99.90;;;;;;5029561;28;20116;-59
2024/01/16 12:35:47;;;;;;;7.35;2.45;;;;;;;;;;5027889;28;20045;-60
2024/01/16 12:38:14;;;;;;;7.97;3.13;;;;;;;;;;5031044;28;20424;-60
2024/01/16 12:40:43;;;;;;;6.90;2.08;;;;;;;;;;5030653;28;20041;-60
2024/01/16 12:43:09;;;;;;;7.07;1.98;;;;;;;;;;5030075;28;20033;-59
2024/01/16 12:45:35;;;;;;;5.07;1.92;;;9.80;99.90;;;;;;5032285;28;20048;-59
2024/01/16 12:48:03;;;;;;;9.43;2.40;;;;;;;;;;5037877;28;20059;-59
2024/01/16 12:50:30;;;;;;;7.45;2.40;;;10.20;99.90;;;;;;5032323;28;20045;-60
2024/01/16 12:53:09;;;;;;;9.30;2.50;;;;;;;;;;5012635;28;20045;-59
2024/01/16 12:55:36;;;;;;;6.38;2.25;;;;;;;;;;5031211;28;20045;-59
2024/01/16 12:58:23;;;;;;;6.78;2.22;;;;;;;;;;5035500;28;20053;-59
2024/01/16 13:00:50;;;;;;;6.13;2.42;;;;;;;;;;5028107;28;20046;-59
2024/01/16 13:03:19;;;;;;;8.27;2.28;;;;;;;;;;5030980;28;20531;-60
2024/01/16 13:05:45;;;;;;;7.53;2.42;;;;;;;;;;5035382;28;20113;-60
2024/01/16 13:08:19;;;;;;;8.73;2.55;;;11.20;99.90;;;;;;5035756;28;20047;-60
2024/01/16 13:10:45;;;;;;;8.43;2.10;;;;;;;;;;5012186;28;20057;-59
2024/01/16 13:13:18;;;;;;;6.55;1.85;;;14.20;99.90;;;;;;5032923;28;20037;-59
2024/01/16 13:15:44;;;;;;;5.60;2.08;;;12.80;99.90;;;;;;5034076;28;20513;-60
2024/01/16 13:18:24;;;;;;;9.25;2.15;;;;;;;;;;5038070;28;20076;-60
2024/01/16 13:20:51;;;;;;;7.25;2.33;;;;;;;;;;5017240;28;20045;-60
2024/01/16 13:23:17;;;;;;;8.80;2.10;;;8.00;99.90;;;;;;5033388;28;20065;-58
2024/01/16 13:25:45;;;;;;;10.02;2.53;;;;;;;;;;5033110;28;20516;-58
2024/01/16 13:28:11;;;;;;;8.20;2.20;;;;;;;;;;5030580;28;20432;-59
2024/01/16 13:30:37;;;;;;;9.88;2.55;;;7.80;99.90;;;;;;5029476;28;20175;-59
2024/01/16 13:33:04;;;;;;;7.25;2.17;;;8.60;99.90;;;;;;5031825;28;20556;-59
2024/01/16 13:35:30;;;;;;;7.40;2.03;;;8.90;99.90;;;;;;5035121;28;20114;-58
2024/01/16 13:37:56;;;;;;;9.88;2.97;;;;;;;;;;5018022;28;20429;-60
2024/01/16 13:40:22;;;;;;;6.53;2.70;;;8.80;99.90;;;;;;5034533;28;20116;-59
2024/01/16 13:42:48;;;;;;;7.43;2.00;;;;;;;;;;5036769;28;20124;-59
2024/01/16 13:45:15;;;;;;;5.45;2.20;;;;;;;;;;5031665;28;20089;-57
2024/01/16 13:47:41;;;;;;;5.32;1.63;;;;;;;;;;5017513;28;20044;-60
2024/01/16 13:50:07;;;;;;;6.85;1.73;;;6.80;99.90;;;;;;5033475;28;20040;-60
2024/01/16 13:52:34;;;;;;;7.80;1.83;;;;;;;;;;5036195;28;20075;-60
2024/01/16 13:55:03;;;;;;;8.65;2.47;;;6.90;99.90;;;;;;5031282;28;20038;-60
2024/01/16 13:57:29;;;;;;;5.95;1.55;;;;;;;;;;5027577;28;20125;-60
2024/01/16 13:59:55;;;;;;;5.28;1.85;;;6.70;99.90;;;;;;5030785;28;20053;-59
2024/01/16 14:02:21;;;;;;;6.10;1.83;;;;;;;;;;5035525;28;20036;-59
2024/01/16 14:04:47;;;;;;;8.88;2.13;;;;;;;;;;5034408;28;20116;-59
2024/01/16 14:07:13;;;;;;;8.63;2.13;;;;;;;;;;5027645;28;20409;-59
2024/01/16 14:09:41;;;;;;;9.00;2.00;;;;;;;;;;5030081;28;20140;-58
2024/01/16 14:12:08;;;;;;;7.45;2.65;;;;;;;;;;5029849;28;20053;-59
2024/01/16 14:14:34;;;;;;;9.45;1.77;;;;;;;;;;5029240;28;20120;-59
2024/01/16 14:17:00;;;;;;;5.80;1.42;;;;;;;;;;5030037;28;20038;-59
2024/01/16 14:19:27;;;;;;;9.38;1.50;;;;;;;;;;5034608;28;20481;-59